Time;durP1;ratioP1;P1;durP2;ratioP2;P2;SDS_P1;SDS_P2;PMS_P1;PMS_P2;Temp;Humidity;BMP_temperature;BMP_pressure;BME280_temperature;BME280_humidity;BME280_pressure;Samples;Min_cycle;Max_cycle;Signal;HPM_P1;HPM_P2
2024/03/24 00:00:30;;;;;;;1.10;0.90;;;;;;;9.28;54.31;96769.00;5035894;28;20198;-72
2024/03/24 00:02:56;;;;;;;5.53;1.10;;;;;;;9.26;53.82;96755.28;5037310;28;20184;-71
2024/03/24 00:05:21;;;;;;;2.30;1.37;;;;;;;8.90;54.40;96759.59;5040408;28;20729;-70
2024/03/24 00:07:46;;;;;;;2.50;1.00;;;;;;;9.14;54.79;96765.16;5037274;28;20650;-70
2024/03/24 00:10:12;;;;;;;1.40;1.10;;;;;;;9.19;53.94;96757.69;5030715;28;20613;-69
2024/03/24 00:12:38;;;;;;;3.03;1.10;;;;;;;9.03;54.54;96766.22;5033249;28;20179;-70
2024/03/24 00:15:04;;;;;;;1.30;1.20;;;;;;;9.05;55.20;96757.28;5031076;28;21043;-71
2024/03/24 00:17:29;;;;;;;1.93;0.90;;;;;;;9.02;54.99;96754.97;5037117;28;20179;-72
2024/03/24 00:19:54;;;;;;;1.40;1.10;;;;;;;8.91;54.92;96747.38;5028997;28;20696;-70
2024/03/24 00:22:20;;;;;;;2.20;1.40;;;;;;;8.92;55.04;96749.03;5033312;28;20607;-72
2024/03/24 00:24:46;;;;;;;4.33;1.20;;;;;;;9.06;55.47;96758.09;5028342;28;20176;-71
2024/03/24 00:27:12;;;;;;;3.30;1.20;;;;;;;8.98;55.32;96748.41;5023634;28;20434;-70
2024/03/24 00:29:37;;;;;;;2.23;1.17;;;;;;;8.81;55.08;96749.28;5037938;28;20253;-71
2024/03/24 00:32:03;;;;;;;1.90;1.10;;;;;;;8.58;56.37;96745.34;5022870;28;20179;-69
2024/03/24 00:34:28;;;;;;;1.50;1.00;;;;;;;8.44;56.80;96730.97;5026837;28;20303;-72
2024/03/24 00:36:54;;;;;;;1.20;1.10;;;;;;;8.64;56.54;96733.47;5023684;28;20198;-70
2024/03/24 00:39:19;;;;;;;2.60;1.10;;;;;;;8.45;56.92;96727.41;5029231;28;20195;-71
2024/03/24 00:41:45;;;;;;;1.20;1.03;;;;;;;8.54;56.78;96724.91;5035843;28;20285;-70
2024/03/24 00:44:10;;;;;;;4.67;1.30;;;;;;;8.55;56.17;96731.75;5027454;28;20186;-71
2024/03/24 00:46:36;;;;;;;2.27;1.47;;;;;;;8.55;56.41;96722.13;5028332;28;20262;-70
2024/03/24 00:49:02;;;;;;;2.80;1.13;;;;;;;8.27;56.82;96708.31;5028367;28;20234;-69
2024/03/24 00:51:28;;;;;;;1.63;0.93;;;;;;;8.53;56.44;96707.59;5029259;28;20187;-70
2024/03/24 00:53:53;;;;;;;1.90;1.37;;;;;;;8.56;56.29;96707.28;5028574;28;20442;-71
2024/03/24 00:56:18;;;;;;;2.40;1.30;;;;;;;8.55;55.73;96713.47;5028136;28;20227;-71
2024/03/24 00:58:44;;;;;;;1.63;1.00;;;;;;;8.73;56.17;96722.09;5032780;28;20341;-70
2024/03/24 01:01:09;;;;;;;3.73;1.33;;;;;;;8.71;55.67;96716.19;5032323;28;20179;-70
2024/03/24 01:03:35;;;;;;;3.20;1.20;;;;;;;8.63;56.07;96716.16;5036402;28;20741;-70
2024/03/24 01:06:01;;;;;;;2.07;1.27;;;;;;;8.54;55.82;96712.66;5032890;28;20200;-69
2024/03/24 01:08:26;;;;;;;1.20;1.10;;;;;;;8.72;56.10;96717.03;5042427;28;20207;-69
2024/03/24 01:10:51;;;;;;;3.47;1.40;;;;;;;8.82;55.67;96701.28;5036804;28;20290;-71
2024/03/24 01:13:17;;;;;;;1.77;0.90;;;;;;;8.76;55.67;96713.97;5028601;28;20265;-71
2024/03/24 01:15:46;;;;;;;2.07;1.00;;;;;;;8.51;55.69;96705.09;5039243;28;20311;-70
2024/03/24 01:18:12;;;;;;;2.30;1.00;;;;;;;8.54;56.55;96704.00;5041294;28;20246;-70
2024/03/24 01:20:37;;;;;;;3.93;0.90;;;;;;;8.51;56.57;96712.13;5028403;28;20457;-71
2024/03/24 01:23:03;;;;;;;5.23;1.17;;;;;;;8.52;56.80;96711.16;5033390;28;20858;-70
2024/03/24 01:25:28;;;;;;;2.40;1.00;;;;;;;8.62;56.38;96711.09;5042411;28;20184;-71
2024/03/24 01:27:54;;;;;;;3.33;1.13;;;;;;;8.45;56.74;96716.94;5034854;28;20870;-73
2024/03/24 01:30:19;;;;;;;3.47;0.90;;;;;;;8.60;56.60;96708.59;5025558;28;20179;-71
2024/03/24 01:32:44;;;;;;;2.60;0.93;;;;;;;8.69;57.36;96707.72;5026359;28;20680;-72
2024/03/24 01:35:10;;;;;;;1.77;1.07;;;;;;;8.71;56.54;96705.75;5032644;28;20639;-71
2024/03/24 01:37:35;;;;;;;1.20;1.10;;;;;;;8.54;56.58;96710.03;5030950;28;20708;-72
2024/03/24 01:40:02;;;;;;;1.20;1.00;;;;;;;8.57;57.58;96703.69;5035142;28;20684;-70
2024/03/24 01:42:28;;;;;;;1.30;0.90;;;;;;;8.70;57.20;96695.47;5028825;28;20186;-70
2024/03/24 01:44:53;;;;;;;3.00;1.20;;;;;;;8.79;56.76;96698.94;5043327;28;20999;-69
2024/03/24 01:47:19;;;;;;;3.10;0.90;;;;;;;8.85;56.85;96690.47;5033973;28;20184;-70
2024/03/24 01:49:45;;;;;;;2.23;1.10;;;;;;;8.84;56.72;96689.69;5030182;28;20693;-70
2024/03/24 01:52:12;;;;;;;3.63;1.20;;;;;;;8.83;56.95;96690.66;5035034;28;20188;-70
2024/03/24 01:54:38;;;;;;;1.43;1.00;;;;;;;8.78;57.30;96686.84;5030218;28;20202;-70
2024/03/24 01:57:03;;;;;;;1.53;0.97;;;;;;;8.82;57.24;96696.84;5034054;28;20418;-71
2024/03/24 01:59:29;;;;;;;1.30;0.83;;;;;;;8.85;57.38;96695.72;5027736;28;20212;-72
2024/03/24 02:01:55;;;;;;;1.80;1.00;;;;;;;8.75;56.44;96691.41;5031232;28;20182;-72
2024/03/24 02:04:21;;;;;;;4.50;0.97;;;;;;;8.75;56.76;96696.63;5035148;28;20176;-70
2024/03/24 02:06:46;;;;;;;1.10;0.80;;;;;;;8.73;56.54;96693.34;5029868;28;20477;-69
2024/03/24 02:09:12;;;;;;;1.00;0.90;;;;;;;8.79;56.95;96696.34;5030282;28;20699;-69
2024/03/24 02:11:37;;;;;;;1.10;0.87;;;;;;;8.78;56.48;96692.88;5031115;28;20276;-72
2024/03/24 02:14:03;;;;;;;2.30;1.03;;;;;;;8.79;56.82;96688.50;5029822;28;20223;-71
2024/03/24 02:16:28;;;;;;;3.20;1.07;;;;;;;8.73;57.31;96682.91;5034403;28;20307;-72
2024/03/24 02:18:54;;;;;;;2.07;1.00;;;;;;;8.71;56.34;96682.22;5036482;28;20199;-71
2024/03/24 02:21:19;;;;;;;1.67;0.80;;;;;;;8.72;56.74;96670.81;5033030;28;20187;-71
2024/03/24 02:23:45;;;;;;;2.30;1.00;;;;;;;8.80;56.26;96672.66;5035712;28;20298;-69
2024/03/24 02:26:10;;;;;;;3.80;0.90;;;;;;;8.80;56.22;96677.06;5031238;28;20569;-71
2024/03/24 02:28:36;;;;;;;4.07;1.10;;;;;;;8.83;56.33;96677.59;5032857;28;20204;-72
2024/03/24 02:31:02;;;;;;;0.90;0.77;;;;;;;8.87;56.55;96670.25;5028095;28;20212;-71
2024/03/24 02:33:27;;;;;;;1.20;0.90;;;;;;;8.91;56.89;96658.53;5036820;28;20254;-71
2024/03/24 02:35:53;;;;;;;1.07;0.97;;;;;;;8.96;56.48;96660.66;5030727;28;20462;-70
2024/03/24 02:38:19;;;;;;;1.00;0.90;;;;;;;8.98;56.40;96654.31;5030757;28;20634;-71
2024/03/24 02:40:47;;;;;;;1.00;0.80;;;;;;;9.02;56.20;96658.25;5032328;28;20468;-71
2024/03/24 02:43:13;;;;;;;2.43;0.97;;;;;;;8.96;56.15;96645.78;5031290;28;20176;-71
2024/03/24 02:45:38;;;;;;;0.90;0.80;;;;;;;8.87;55.75;96646.72;5023596;28;20414;-73
2024/03/24 02:48:04;;;;;;;1.30;0.90;;;;;;;8.86;55.86;96645.09;5031325;28;20258;-73
2024/03/24 02:50:29;;;;;;;1.30;1.00;;;;;;;8.86;55.29;96645.09;5033706;28;20183;-71
2024/03/24 02:52:55;;;;;;;1.30;0.80;;;;;;;8.89;55.49;96644.78;5032047;28;20224;-71
2024/03/24 02:55:24;;;;;;;1.73;0.80;;;;;;;8.80;55.60;96635.28;5033013;28;20274;-73
2024/03/24 02:57:49;;;;;;;1.70;0.83;;;;;;;8.76;55.67;96642.56;5048375;28;20183;-71
2024/03/24 03:00:15;;;;;;;1.07;0.83;;;;;;;8.72;55.88;96641.25;5025236;28;20449;-71
2024/03/24 03:02:40;;;;;;;1.50;0.80;;;;;;;8.82;55.96;96635.94;5031226;28;20262;-70
2024/03/24 03:05:06;;;;;;;1.00;0.70;;;;;;;8.87;55.31;96651.97;5033414;28;20259;-70
2024/03/24 03:07:32;;;;;;;1.10;1.00;;;;;;;8.84;54.92;96647.03;5039073;28;20633;-72
2024/03/24 03:09:58;;;;;;;4.10;0.70;;;;;;;8.79;55.17;96644.09;5040105;28;20223;-70
2024/03/24 03:12:23;;;;;;;0.93;0.80;;;;;;;8.78;54.89;96647.66;5031078;28;20191;-73
2024/03/24 03:14:48;;;;;;;1.47;0.93;;;;;;;8.63;55.16;96639.59;5033683;28;20908;-71
2024/03/24 03:17:14;;;;;;;1.90;0.80;;;;;;;8.74;55.48;96639.31;5033849;28;20278;-70
2024/03/24 03:19:39;;;;;;;1.20;0.90;;;;;;;8.72;55.30;96639.47;5042137;28;20199;-71
2024/03/24 03:22:05;;;;;;;1.20;1.10;;;;;;;8.69;55.92;96634.56;5043472;28;20265;-71
2024/03/24 03:24:30;;;;;;;4.50;1.10;;;;;;;8.63;55.70;96642.19;5041010;28;20191;-71
2024/03/24 03:26:56;;;;;;;2.00;1.10;;;;;;;8.68;55.34;96638.16;5034590;28;20279;-71
2024/03/24 03:29:21;;;;;;;1.10;0.80;;;;;;;8.70;55.35;96624.91;5032003;28;20711;-73
2024/03/24 03:31:47;;;;;;;1.60;0.90;;;;;;;8.74;54.73;96627.06;5024539;28;20529;-71
2024/03/24 03:34:12;;;;;;;1.63;0.80;;;;;;;8.43;55.28;96635.34;5037694;28;20789;-71
2024/03/24 03:36:37;;;;;;;2.00;0.90;;;;;;;8.50;55.46;96630.38;5022430;28;20843;-70
2024/03/24 03:39:04;;;;;;;1.50;0.90;;;;;;;8.46;55.78;96623.78;5035587;28;20211;-71
2024/03/24 03:41:31;;;;;;;1.33;0.70;;;;;;;8.53;55.59;96618.78;5024021;28;20184;-72
2024/03/24 03:43:56;;;;;;;1.60;0.70;;;;;;;8.60;55.45;96622.41;5035998;28;20418;-70
2024/03/24 03:46:22;;;;;;;1.40;0.77;;;;;;;8.61;56.12;96616.22;5032381;28;20561;-72
2024/03/24 03:48:48;;;;;;;0.93;0.83;;;;;;;8.51;55.66;96620.72;5033393;28;20196;-71
2024/03/24 03:51:19;;;;;;;0.93;0.83;;;;;;;8.50;55.80;96613.84;5038209;28;20179;-72
2024/03/24 03:53:44;;;;;;;0.90;0.80;;;;;;;8.56;55.67;96616.69;5029296;28;20434;-71
2024/03/24 03:56:10;;;;;;;1.00;0.80;;;;;;;8.53;55.27;96614.38;5034303;28;20455;-71
2024/03/24 03:58:35;;;;;;;1.37;0.90;;;;;;;8.61;55.51;96608.38;5028964;28;20744;-70
2024/03/24 04:01:01;;;;;;;1.57;0.97;;;;;;;8.56;55.62;96615.88;5030398;28;20183;-71
2024/03/24 04:03:26;;;;;;;1.10;0.83;;;;;;;8.64;55.60;96605.47;5028421;28;20521;-71
2024/03/24 04:05:54;;;;;;;1.10;0.80;;;;;;;8.69;55.32;96612.84;5029378;28;20187;-71
2024/03/24 04:08:19;;;;;;;0.90;0.80;;;;;;;8.59;55.17;96613.75;5027752;28;20191;-70
2024/03/24 04:10:56;;;;;;;1.67;1.00;;;;;;;8.62;55.24;96611.81;5036974;28;20554;-71
2024/03/24 04:13:22;;;;;;;2.20;0.80;;;;;;;8.74;55.45;96616.63;5025897;28;20187;-72
2024/03/24 04:15:47;;;;;;;2.47;1.10;;;;;;;8.68;54.83;96617.25;5032091;28;20486;-71
2024/03/24 04:18:12;;;;;;;1.33;0.87;;;;;;;8.57;55.43;96614.88;5027693;28;20249;-70
2024/03/24 04:20:38;;;;;;;1.40;0.80;;;;;;;8.66;55.14;96615.75;5026481;28;20196;-72
2024/03/24 04:23:04;;;;;;;0.97;0.87;;;;;;;8.67;55.27;96620.84;5030213;28;20630;-72
2024/03/24 04:25:29;;;;;;;1.00;0.90;;;;;;;8.49;55.29;96614.84;5036594;28;20186;-71
2024/03/24 04:27:55;;;;;;;1.23;1.00;;;;;;;8.48;55.91;96615.78;5027784;28;20453;-70
2024/03/24 04:30:20;;;;;;;1.10;0.70;;;;;;;8.09;55.34;96611.75;5029004;28;20294;-71
2024/03/24 04:32:46;;;;;;;0.90;0.80;;;;;;;8.09;55.72;96617.78;5027539;28;20279;-70
2024/03/24 04:35:12;;;;;;;1.30;0.97;;;;;;;8.28;56.04;96624.63;5027836;28;20644;-71
2024/03/24 04:37:38;;;;;;;1.10;0.90;;;;;;;8.30;56.20;96621.88;5027019;28;20183;-71
2024/03/24 04:40:08;;;;;;;1.40;0.87;;;;;;;8.30;55.70;96625.28;5028317;28;20450;-71
2024/03/24 04:42:33;;;;;;;3.47;1.30;;;;;;;8.30;55.64;96627.09;5027405;28;20562;-73
2024/03/24 04:45:00;;;;;;;3.10;1.40;;;;;;;8.32;55.17;96625.13;5030834;28;20426;-72
2024/03/24 04:47:27;;;;;;;5.30;1.20;;;;;;;8.41;54.98;96621.63;5026797;28;20656;-72
2024/03/24 04:49:53;;;;;;;6.87;4.10;;;;;;;8.50;54.53;96632.16;5032346;28;20445;-71
2024/03/24 04:52:18;;;;;;;3.53;2.83;;;;;;;8.58;54.62;96630.41;5035535;28;20549;-71
2024/03/24 04:54:44;;;;;;;2.80;2.37;;;;;;;8.62;54.65;96635.34;5026482;28;20206;-71
2024/03/24 04:57:09;;;;;;;2.70;1.47;;;;;;;8.44;53.97;96636.97;5026427;28;20183;-72
2024/03/24 04:59:35;;;;;;;1.80;1.10;;;;;;;8.50;54.49;96639.97;5028439;28;20288;-72
2024/03/24 05:02:00;;;;;;;1.10;1.00;;;;;;;8.40;54.85;96630.44;5041034;28;20204;-72
2024/03/24 05:04:25;;;;;;;1.07;0.97;;;;;;;8.42;55.15;96638.94;5027516;28;20660;-71
2024/03/24 05:06:51;;;;;;;1.73;1.03;;;;;;;8.46;54.87;96632.41;5033608;28;20200;-71
2024/03/24 05:09:17;;;;;;;1.73;1.00;;;;;;;8.50;55.17;96629.53;5028057;28;20235;-71
2024/03/24 05:11:42;;;;;;;2.23;0.80;;;;;;;8.38;55.05;96632.38;5027401;28;20582;-73
2024/03/24 05:14:08;;;;;;;3.53;0.80;;;;;;;8.54;54.86;96636.09;5036632;28;20191;-72
2024/03/24 05:16:36;;;;;;;5.30;0.97;;;;;;;8.49;54.54;96633.94;5028339;28;20246;-71
2024/03/24 05:19:06;;;;;;;0.90;0.70;;;;;;;8.50;54.05;96634.75;5027484;28;20447;-72
2024/03/24 05:21:32;;;;;;;1.20;0.83;;;;;;;8.42;54.72;96638.09;5020790;28;20519;-71
2024/03/24 05:23:57;;;;;;;2.43;0.80;;;;;;;8.39;55.43;96636.63;5032945;28;20521;-71
2024/03/24 05:26:24;;;;;;;2.70;0.90;;;;;;;8.40;55.17;96630.44;5028446;28;20219;-72
2024/03/24 05:28:50;;;;;;;3.70;0.97;;;;;;;8.36;54.22;96634.31;5028524;28;20680;-70
2024/03/24 05:31:15;;;;;;;0.90;0.77;;;;;;;8.39;54.94;96633.16;5026958;28;20432;-72
2024/03/24 05:33:41;;;;;;;1.20;1.00;;;;;;;8.50;54.60;96632.16;5034336;28;20331;-72
2024/03/24 05:36:08;;;;;;;1.20;0.90;;;;;;;8.50;54.94;96629.53;5021171;28;20238;-70
2024/03/24 05:38:34;;;;;;;2.37;1.00;;;;;;;8.31;54.84;96626.13;5033538;28;20203;-71
2024/03/24 05:41:00;;;;;;;2.23;0.90;;;;;;;7.99;54.69;96635.31;5024915;28;20422;-71
2024/03/24 05:43:26;;;;;;;1.30;0.80;;;;;;;8.01;55.59;96638.59;5039976;28;20195;-72
2024/03/24 05:45:55;;;;;;;1.10;0.80;;;;;;;8.15;55.60;96638.06;5044831;28;21186;-72
2024/03/24 05:48:22;;;;;;;2.73;1.10;;;;;;;8.22;54.78;96640.06;5038350;28;20445;-70
2024/03/24 05:51:00;;;;;;;0.90;0.80;;;;;;;8.30;54.51;96645.38;5031310;28;20765;-70
2024/03/24 05:53:26;;;;;;;1.70;1.00;;;;;;;8.29;55.23;96648.94;5023562;28;20423;-70
2024/03/24 05:55:51;;;;;;;1.63;0.80;;;;;;;8.24;54.49;96654.63;5044913;28;20975;-71
2024/03/24 05:58:18;;;;;;;3.23;0.90;;;;;;;8.54;54.89;96655.19;5037369;28;20204;-71
2024/03/24 06:00:44;;;;;;;2.33;0.70;;;;;;;8.64;54.79;96652.47;5046857;28;20176;-71
2024/03/24 06:03:09;;;;;;;1.23;0.90;;;;;;;8.58;54.75;96655.69;5062160;28;20431;-71
2024/03/24 06:05:41;;;;;;;1.83;1.03;;;;;;;8.65;53.99;96653.28;5041356;28;20446;-71
2024/03/24 06:08:10;;;;;;;2.83;0.80;;;;;;;8.39;54.13;96659.28;5033366;28;20704;-70
2024/03/24 06:10:42;;;;;;;4.30;0.90;;;;;;;8.57;54.32;96661.88;5033970;28;20431;-71
2024/03/24 06:13:07;;;;;;;2.03;0.80;;;;;;;8.71;54.46;96663.94;5038915;28;20457;-70
2024/03/24 06:15:33;;;;;;;2.10;1.00;;;;;;;8.75;54.85;96657.44;5043928;28;20556;-70
2024/03/24 06:18:04;;;;;;;1.40;1.00;;;;;;;8.86;54.43;96650.31;5038318;28;20202;-71
2024/03/24 06:20:39;;;;;;;2.07;0.83;;;;;;;8.80;53.46;96661.41;5030798;28;20183;-71
2024/03/24 06:23:05;;;;;;;4.50;1.40;;;;;;;8.79;54.07;96655.34;4999924;28;20501;-71
2024/03/24 06:25:31;;;;;;;2.27;1.07;;;;;;;8.78;52.71;96658.94;5030726;28;20431;-71
2024/03/24 06:27:57;;;;;;;1.30;1.07;;;;;;;8.85;52.66;96656.50;5029015;28;20459;-70
2024/03/24 06:30:23;;;;;;;2.80;0.83;;;;;;;9.30;57.58;96652.81;5031471;28;20512;-69
2024/03/24 06:32:48;;;;;;;4.57;1.10;;;;;;;9.97;58.63;96643.34;5016045;28;20722;-68
2024/03/24 06:35:14;;;;;;;5.80;0.80;;;;;;;10.60;58.24;96654.16;5028428;28;20211;-69
2024/03/24 06:37:40;;;;;;;2.03;1.10;;;;;;;10.63;50.37;96656.44;5017650;28;20268;-72
2024/03/24 06:40:10;;;;;;;1.73;1.00;;;;;;;10.76;49.57;96658.53;5014764;28;20207;-71
2024/03/24 06:42:43;;;;;;;3.40;1.17;;;;;;;10.78;48.62;96661.81;5018981;28;20775;-71
2024/03/24 06:45:10;;;;;;;1.77;1.60;;;;;;;10.80;48.70;96666.88;5025545;28;20424;-72
2024/03/24 06:47:35;;;;;;;1.40;1.10;;;;;;;10.88;48.82;96669.50;5014749;28;20442;-71
2024/03/24 06:50:03;;;;;;;1.70;1.37;;;;;;;10.91;47.61;96666.53;5027187;28;20591;-72
2024/03/24 06:52:28;;;;;;;1.00;0.90;;;;;;;11.09;47.55;96663.69;5030207;28;20195;-72
2024/03/24 06:54:54;;;;;;;1.20;0.90;;;;;;;10.90;47.87;96659.66;5021372;28;20457;-71
2024/03/24 06:57:19;;;;;;;2.40;1.30;;;;;;;10.80;47.33;96675.59;5021676;28;20269;-71
2024/03/24 06:59:46;;;;;;;1.60;1.50;;;;;;;10.80;47.59;96672.97;5031044;28;20282;-71
2024/03/24 07:02:11;;;;;;;1.20;1.10;;;;;;;10.81;47.88;96676.38;5030081;28;20214;-72
2024/03/24 07:04:37;;;;;;;1.27;0.90;;;;;;;10.67;48.28;96677.91;5037645;28;20987;-71
2024/03/24 07:07:03;;;;;;;1.47;1.10;;;;;;;10.47;48.00;96680.03;5031721;28;20226;-71
2024/03/24 07:09:28;;;;;;;2.23;1.50;;;;;;;10.62;47.77;96680.19;5030038;28;20846;-71
2024/03/24 07:11:54;;;;;;;5.00;1.00;;;;;;;10.63;47.75;96679.19;5029492;28;20215;-71
2024/03/24 07:14:19;;;;;;;2.70;1.20;;;;;;;10.65;47.40;96666.75;5029148;28;20896;-70
2024/03/24 07:16:44;;;;;;;1.20;1.00;;;;;;;10.67;47.13;96676.09;5033416;28;20223;-70
2024/03/24 07:19:10;;;;;;;2.30;1.00;;;;;;;10.60;46.68;96675.91;5029613;28;20314;-72
2024/03/24 07:21:35;;;;;;;2.60;1.20;;;;;;;10.65;46.87;96672.81;5043358;28;20237;-72
2024/03/24 07:24:01;;;;;;;3.13;1.10;;;;;;;10.48;46.72;96672.00;5028813;28;20630;-72
2024/03/24 07:26:26;;;;;;;1.77;1.10;;;;;;;10.39;46.98;96673.84;5029343;28;20179;-71
2024/03/24 07:28:52;;;;;;;1.30;1.20;;;;;;;10.62;47.61;96678.41;5034719;28;20307;-71
2024/03/24 07:31:18;;;;;;;2.03;1.33;;;;;;;10.85;46.32;96678.50;5028980;28;20270;-70
2024/03/24 07:33:45;;;;;;;2.83;1.50;;;;;;;10.98;44.61;96670.13;5011314;28;20286;-71
2024/03/24 07:36:10;;;;;;;1.20;1.10;;;;;;;10.97;44.55;96672.91;5030685;28;21335;-70
2024/03/24 07:38:37;;;;;;;3.23;1.20;;;;;;;10.93;43.48;96680.31;5029382;28;20538;-71
2024/03/24 07:41:02;;;;;;;1.50;1.23;;;;;;;10.91;44.08;96675.22;5028725;28;20249;-71
2024/03/24 07:43:28;;;;;;;2.40;1.30;;;;;;;11.16;43.33;96659.44;5024995;28;20431;-70
2024/03/24 07:45:53;;;;;;;1.83;1.30;;;;;;;11.08;43.74;96635.88;5033723;28;20671;-70
2024/03/24 07:48:18;;;;;;;4.90;1.70;;;;;;;10.49;43.96;96636.97;5028092;28;20207;-71
2024/03/24 07:50:45;;;;;;;1.40;1.30;;;;;;;11.04;43.95;96642.44;5033088;28;20180;-72
2024/03/24 07:53:11;;;;;;;5.90;1.57;;;;;;;10.97;44.35;96654.56;5028317;28;20184;-71
2024/03/24 07:55:36;;;;;;;2.80;1.47;;;;;;;10.91;43.67;96658.66;5027805;28;20454;-72
2024/03/24 07:58:01;;;;;;;3.57;1.20;;;;;;;11.14;43.64;96661.41;5036404;28;20188;-72
2024/03/24 08:00:27;;;;;;;2.50;1.13;;;;;;;10.81;44.66;96650.19;5028988;28;20199;-71
2024/03/24 08:02:52;;;;;;;2.17;1.00;;;;;;;11.09;44.58;96652.41;5028461;28;20179;-71
2024/03/24 08:05:18;;;;;;;7.07;1.20;;;;;;;11.30;44.52;96655.28;5029185;28;20190;-71
2024/03/24 08:07:43;;;;;;;1.40;1.10;;;;;;;11.59;43.70;96653.84;5029145;28;20649;-70
2024/03/24 08:10:12;;;;;;;1.73;1.10;;;;;;;11.78;43.33;96651.78;5035251;28;20211;-70
2024/03/24 08:12:40;;;;;;;3.00;1.23;;;;;;;11.86;43.13;96643.84;5027684;28;20261;-71
2024/03/24 08:15:06;;;;;;;1.87;1.13;;;;;;;11.83;44.22;96647.63;5029211;28;20958;-71
2024/03/24 08:17:32;;;;;;;1.97;1.07;;;;;;;12.20;43.72;96644.47;5029697;28;20865;-71
2024/03/24 08:19:57;;;;;;;1.50;1.37;;;;;;;12.29;41.83;96641.56;5028200;28;20504;-70
2024/03/24 08:22:23;;;;;;;3.63;1.10;;;;;;;12.59;41.55;96644.28;5030550;28;20274;-70
2024/03/24 08:24:48;;;;;;;1.20;0.83;;;;;;;12.60;41.46;96653.00;5036349;28;20186;-70
2024/03/24 08:27:14;;;;;;;2.03;1.10;;;;;;;13.03;41.22;96650.56;5029924;28;20270;-71
2024/03/24 08:29:39;;;;;;;3.00;1.07;;;;;;;13.10;40.60;96644.59;5029213;28;20695;-71
2024/03/24 08:32:05;;;;;;;2.17;1.17;;;;;;;13.37;39.94;96640.50;5036620;28;20190;-72
2024/03/24 08:34:30;;;;;;;3.00;1.13;;;;;;;13.27;39.27;96656.56;5028374;28;20186;-70
2024/03/24 08:36:56;;;;;;;6.10;1.60;;;;;;;12.54;40.03;96656.31;5027828;28;20266;-70
2024/03/24 08:39:21;;;;;;;1.97;0.90;;;;;;;12.62;39.88;96658.06;5028304;28;20199;-70
2024/03/24 08:41:47;;;;;;;6.37;1.47;;;;;;;12.63;39.50;96644.72;5029194;28;20666;-71
2024/03/24 08:44:12;;;;;;;2.80;1.50;;;;;;;12.43;39.92;96642.63;5030100;28;20222;-71
2024/03/24 08:46:39;;;;;;;2.50;1.50;;;;;;;12.62;40.77;96650.19;5030372;28;20219;-71
2024/03/24 08:49:04;;;;;;;4.60;1.37;;;;;;;12.66;39.92;96652.28;5023116;28;20205;-71
2024/03/24 08:51:30;;;;;;;1.80;1.40;;;;;;;12.64;39.14;96662.13;5028276;28;20810;-71
2024/03/24 08:53:55;;;;;;;2.93;1.30;;;;;;;12.61;39.81;96662.50;5027701;28;20188;-70
2024/03/24 08:56:21;;;;;;;3.20;1.10;;;;;;;12.59;40.16;96670.56;5035628;28;20742;-71
2024/03/24 08:58:46;;;;;;;2.70;1.53;;;;;;;12.23;39.67;96668.56;5027955;28;20308;-71
2024/03/24 09:01:12;;;;;;;2.80;1.30;;;;;;;11.84;39.59;96666.81;5029397;28;20215;-71
2024/03/24 09:03:37;;;;;;;3.67;1.53;;;;;;;11.65;40.11;96675.94;5027913;28;20195;-71
2024/03/24 09:06:03;;;;;;;2.33;1.50;;;;;;;11.73;40.01;96675.91;5027947;28;20226;-71
2024/03/24 09:08:28;;;;;;;6.47;1.60;;;;;;;11.31;40.43;96677.09;5028142;28;20203;-71
2024/03/24 09:11:03;;;;;;;4.60;1.50;;;;;;;11.37;40.48;96676.41;5032807;28;20215;-72
2024/03/24 09:13:29;;;;;;;2.50;1.20;;;;;;;11.07;40.86;96679.63;5029202;28;20265;-71
2024/03/24 09:15:54;;;;;;;5.70;2.10;;;;;;;10.88;40.86;96691.28;5045727;28;20565;-72
2024/03/24 09:18:20;;;;;;;3.57;1.70;;;;;;;10.81;41.42;96684.25;5031572;28;20194;-71
2024/03/24 09:20:45;;;;;;;2.90;1.60;;;;;;;10.80;41.44;96691.31;5032386;28;20179;-70
2024/03/24 09:23:11;;;;;;;2.80;1.70;;;;;;;10.83;41.56;96685.75;5032071;28;20183;-70
2024/03/24 09:25:36;;;;;;;3.50;1.77;;;;;;;10.94;41.34;96670.66;5040407;28;20190;-72
2024/03/24 09:28:01;;;;;;;2.80;1.67;;;;;;;10.85;41.71;96678.50;5040153;28;20207;-71
2024/03/24 09:30:27;;;;;;;3.27;1.43;;;;;;;11.15;41.89;96678.78;5038785;28;20212;-72
2024/03/24 09:32:52;;;;;;;5.27;1.77;;;;;;;11.27;41.63;96683.66;5031018;28;20551;-71
2024/03/24 09:35:18;;;;;;;2.87;1.60;;;;;;;11.23;41.50;96685.81;5032966;28;20211;-70
2024/03/24 09:37:43;;;;;;;8.23;1.77;;;;;;;11.14;41.68;96692.88;5031441;28;20187;-72
2024/03/24 09:40:09;;;;;;;4.40;1.77;;;;;;;11.26;41.54;96680.22;5033319;28;20286;-72
2024/03/24 09:42:35;;;;;;;4.93;1.93;;;;;;;11.01;41.72;96693.41;5038023;28;20191;-72
2024/03/24 09:45:03;;;;;;;4.10;2.13;;;;;;;11.04;42.03;96692.25;5031580;28;20422;-71
2024/03/24 09:47:29;;;;;;;5.00;2.30;;;;;;;11.12;42.48;96704.53;5031034;28;20184;-71
2024/03/24 09:49:56;;;;;;;7.50;2.20;;;;;;;11.05;42.08;96704.38;5032134;28;20865;-71
2024/03/24 09:52:22;;;;;;;6.30;2.10;;;;;;;10.64;42.33;96694.78;5033630;28;20211;-71
2024/03/24 09:54:48;;;;;;;3.73;2.00;;;;;;;10.77;42.79;96704.75;5038656;28;20459;-70
2024/03/24 09:57:13;;;;;;;2.10;1.40;;;;;;;10.84;42.87;96716.19;5037982;28;20433;-71
2024/03/24 09:59:39;;;;;;;4.60;2.03;;;;;;;10.77;42.97;96714.41;5036322;28;20638;-71
2024/03/24 10:02:26;;;;;;;4.53;2.17;;;;;;;10.52;43.40;96701.34;4994756;28;20187;-71
2024/03/24 10:04:54;;;;;;;4.10;2.07;;;;;;;10.64;43.81;96701.81;5012626;28;20480;-71
2024/03/24 10:07:19;;;;;;;3.87;1.80;;;;;;;10.98;43.48;96688.50;5028787;28;20465;-71
2024/03/24 10:09:44;;;;;;;3.13;2.07;;;;;;;11.05;42.78;96697.31;5030508;28;20462;-71
2024/03/24 10:12:11;;;;;;;5.10;2.37;;;;;;;11.03;42.79;96683.53;5032576;28;20237;-71
2024/03/24 10:14:36;;;;;;;6.30;2.17;;;;;;;11.16;42.46;96685.66;5034623;28;20663;-71
2024/03/24 10:17:18;;;;;;;5.50;2.30;;;;;;;10.97;43.08;96683.41;5035955;28;20525;-71
2024/03/24 10:19:49;;;;;;;1.87;1.50;;;;;;;11.00;43.26;96683.91;5024564;28;20797;-71
2024/03/24 10:22:15;;;;;;;3.47;1.87;;;;;;;10.84;43.71;96689.97;5032988;28;20460;-71
2024/03/24 10:24:44;;;;;;;4.53;1.63;;;;;;;11.02;43.52;96673.25;5035486;28;20926;-69
2024/03/24 10:27:10;;;;;;;6.60;2.03;;;;;;;11.12;43.37;96686.97;5032463;28;20187;-72
2024/03/24 10:29:36;;;;;;;7.83;2.10;;;;;;;11.17;43.04;96697.78;5029785;28;20815;-71
2024/03/24 10:32:01;;;;;;;7.20;1.90;;;;;;;11.79;42.69;96677.84;5038457;28;20437;-70
2024/03/24 10:34:35;;;;;;;4.10;2.00;;;;;;;12.26;41.60;96668.22;5030329;28;20550;-71
2024/03/24 10:37:00;;;;;;;4.30;2.00;;;;;;;12.70;40.78;96665.88;5030093;28;20205;-70
2024/03/24 10:39:27;;;;;;;5.00;1.83;;;;;;;13.16;40.45;96673.63;5030310;28;20439;-71
2024/03/24 10:41:53;;;;;;;5.93;2.00;;;;;;;13.40;39.12;96669.09;5034500;28;20194;-72
2024/03/24 10:44:19;;;;;;;3.03;2.07;;;;;;;13.15;39.35;96669.38;5034457;28;20419;-72
2024/03/24 10:46:45;;;;;;;1.90;1.57;;;;;;;13.51;38.79;96665.16;5031360;28;20417;-71
2024/03/24 10:49:12;;;;;;;2.40;1.80;;;;;;;13.85;38.68;96669.03;5025078;28;20210;-71
2024/03/24 10:51:38;;;;;;;2.47;1.70;;;;;;;14.32;38.59;96658.91;5034760;28;20438;-71
2024/03/24 10:54:05;;;;;;;2.10;1.50;;;;;;;14.53;37.29;96659.91;5025190;28;20526;-71
2024/03/24 10:56:30;;;;;;;4.93;1.97;;;;;;;14.50;36.47;96662.94;5034894;28;20915;-71
2024/03/24 10:58:58;;;;;;;3.47;1.90;;;;;;;14.61;36.48;96664.25;5041303;28;20489;-72
2024/03/24 11:01:24;;;;;;;2.73;1.80;;;;;;;14.18;37.01;96652.72;5053290;28;20196;-71
2024/03/24 11:03:50;;;;;;;7.00;1.90;;;;;;;13.67;37.75;96664.97;5033025;28;20425;-72
2024/03/24 11:06:16;;;;;;;2.60;1.40;;;;;;;14.10;37.34;96653.66;5028063;28;20187;-71
2024/03/24 11:08:42;;;;;;;3.67;1.70;;;;;;;14.38;36.99;96646.78;5032705;28;20799;-72
2024/03/24 11:11:08;;;;;;;3.03;1.67;;;;;;;13.79;37.64;96649.50;5030877;28;20191;-71
2024/03/24 11:13:35;;;;;;;2.90;1.80;;;;;;;14.05;37.22;96652.59;5028703;28;20423;-71
2024/03/24 11:16:04;;;;;;;2.97;1.63;;;;;;;14.07;37.49;96630.31;5031339;28;20623;-71
2024/03/24 11:18:30;;;;;;;2.10;1.53;;;;;;;13.79;37.29;96657.41;5028603;28;20449;-70
2024/03/24 11:20:58;;;;;;;3.37;1.60;;;;;;;13.72;38.02;96639.91;5026855;28;20426;-70
2024/03/24 11:23:33;;;;;;;2.70;1.87;;;;;;;13.52;38.25;96661.53;5038443;28;20183;-72
2024/03/24 11:26:01;;;;;;;3.17;1.70;;;;;;;13.30;38.97;96652.72;5030378;28;20938;-70
2024/03/24 11:28:42;;;;;;;4.43;1.93;;;;;;;12.95;39.91;96644.59;5029982;28;21009;-71
2024/03/24 11:31:20;;;;;;;2.03;1.50;;;;;;;11.59;42.58;96666.16;5029570;28;20434;-72
2024/03/24 11:34:12;;;;;;;4.30;2.30;;;;;;;11.82;43.88;96664.38;5030560;28;20657;-71